Time;durP1;ratioP1;P1;durP2;ratioP2;P2;SDS_P1;SDS_P2;PMS_P1;PMS_P2;Temp;Humidity;BMP_temperature;BMP_pressure;BME280_temperature;BME280_humidity;BME280_pressure;Samples;Min_cycle;Max_cycle;Signal;HPM_P1;HPM_P2
2020/12/29 00:01:41;270473.00;0.90;467.16;0.00;0.00;0.62;;;;;24.50;37.60;;;;;;2264439;60;8060;-69
2020/12/29 00:04:10;510536.00;1.70;879.97;0.00;0.00;0.62;;;;;24.50;37.60;;;;;;2264026;60;7456;-69
2020/12/29 00:06:47;387067.00;1.29;667.57;0.00;0.00;0.62;;;;;24.50;37.70;;;;;;2257518;61;8279;-70
2020/12/29 00:09:19;507561.00;1.69;874.84;0.00;0.00;0.62;;;;;24.50;37.60;;;;;;2264051;61;8122;-69
2020/12/29 00:11:46;606502.00;2.02;1045.45;59637.00;0.20;103.85;;;;;24.50;37.60;;;;;;2266197;60;7816;-70
2020/12/29 00:14:14;462041.00;1.54;796.50;26553.00;0.09;46.62;;;;;24.50;37.60;;;;;;2263136;61;7259;-69
2020/12/29 00:16:41;457703.00;1.53;789.03;0.00;0.00;0.62;;;;;24.50;37.60;;;;;;2258759;60;8212;-69
2020/12/29 00:19:12;364588.00;1.22;628.93;0.00;0.00;0.62;;;;;24.40;37.60;;;;;;2262768;61;8529;-69
2020/12/29 00:21:39;218367.00;0.73;377.53;0.00;0.00;0.62;;;;;24.40;37.50;;;;;;2262539;61;8775;-69
2020/12/29 00:24:07;397183.00;1.32;684.96;22765.00;0.08;40.06;;;;;24.40;37.60;;;;;;2261763;61;8388;-69
2020/12/29 00:26:33;469972.00;1.57;810.14;33410.00;0.11;58.49;;;;;24.40;37.60;;;;;;2262132;60;8871;-69
2020/12/29 00:28:59;464460.00;1.55;800.66;12188.00;0.04;21.74;;;;;24.40;37.60;;;;;;2263826;61;5892;-69
2020/12/29 00:31:30;261775.00;0.87;452.20;19562.00;0.07;34.51;;;;;24.40;37.60;;;;;;2264257;61;8019;-69
2020/12/29 00:33:57;349308.00;1.16;602.67;0.00;0.00;0.62;;;;;24.40;37.60;;;;;;2264051;60;7861;-69
2020/12/29 00:36:24;341917.00;1.14;589.97;30597.00;0.10;53.62;;;;;24.40;37.60;;;;;;2264266;61;6092;-69
2020/12/29 00:38:52;424427.00;1.41;731.80;0.00;0.00;0.62;;;;;24.40;37.60;;;;;;2259101;61;7795;-69
2020/12/29 00:41:18;226913.00;0.76;392.24;0.00;0.00;0.62;;;;;24.40;37.60;;;;;;2263863;61;5808;-69
2020/12/29 00:43:45;428895.00;1.43;739.49;0.00;0.00;0.62;;;;;24.40;37.60;;;;;;2262376;61;7731;-69
2020/12/29 00:46:17;430936.00;1.44;743.00;30550.00;0.10;53.54;;;;;24.40;37.60;;;;;;2263716;61;7661;-69
2020/12/29 00:48:44;147818.00;0.49;256.05;0.00;0.00;0.62;;;;;24.30;37.50;;;;;;2263150;61;7964;-70
2020/12/29 00:51:16;269722.00;0.90;465.87;73.00;0.00;0.75;;;;;24.30;37.50;;;;;;2262641;60;7693;-69
2020/12/29 00:53:42;350864.00;1.17;605.35;8699.00;0.03;15.70;;;;;24.30;37.50;;;;;;2263250;60;7816;-69
2020/12/29 00:56:10;473510.00;1.58;816.23;28367.00;0.09;49.76;;;;;24.30;37.50;;;;;;2263342;61;7613;-69
2020/12/29 00:58:40;121261384.00;404.20;72232792.00;34412.00;0.11;60.22;;;;;24.30;37.50;;;;;;2264579;61;7777;-69
2020/12/29 01:01:09;393784.00;1.31;679.12;0.00;0.00;0.62;;;;;24.30;37.60;;;;;;2261896;61;7611;-69
2020/12/29 01:03:38;469144.00;1.56;808.72;6334.00;0.02;11.60;;;;;24.30;37.60;;;;;;2261288;61;7764;-69
2020/12/29 01:06:04;309680.00;1.03;534.56;9413.00;0.03;16.93;;;;;24.20;38.20;;;;;;2264066;61;7701;-69
2020/12/29 01:08:31;349292.00;1.16;602.64;0.00;0.00;0.62;;;;;24.20;37.70;;;;;;2265556;60;7626;-69
2020/12/29 01:10:59;501059.00;1.67;863.65;461.00;0.00;1.42;;;;;24.10;37.80;;;;;;2263562;61;8118;-69
2020/12/29 01:13:25;469930.00;1.57;810.07;0.00;0.00;0.62;;;;;24.10;37.90;;;;;;2261276;61;7927;-69
2020/12/29 01:15:53;356862.00;1.19;615.66;0.00;0.00;0.62;;;;;24.00;37.90;;;;;;2263210;61;7878;-69
2020/12/29 01:18:19;378735.00;1.26;653.25;0.00;0.00;0.62;;;;;24.00;38.00;;;;;;2262133;60;7989;-69
2020/12/29 01:20:47;162391.00;0.54;281.16;0.00;0.00;0.62;;;;;24.00;38.10;;;;;;2261319;61;7882;-69
2020/12/29 01:23:15;266590.00;0.89;460.48;20891.00;0.07;36.81;;;;;24.00;38.10;;;;;;2262685;61;7797;-69
2020/12/29 01:25:43;216405.00;0.72;374.16;16499.00;0.05;29.21;;;;;24.00;38.00;;;;;;2259169;61;7757;-69
2020/12/29 01:28:10;215022.00;0.72;371.78;19524.00;0.07;34.45;;;;;24.00;38.10;;;;;;2259283;61;7938;-69
2020/12/29 01:30:37;618919.00;2.06;1066.90;124132.00;0.41;215.21;;;;;24.00;38.10;;;;;;2263529;61;7883;-69
2020/12/29 01:33:04;256019.00;0.85;442.30;13427.00;0.04;23.89;;;;;24.00;38.00;;;;;;2261065;61;7995;-69
2020/12/29 01:35:30;373991.00;1.25;645.10;20178.00;0.07;35.58;;;;;24.00;38.00;;;;;;2262546;61;7422;-69
2020/12/29 01:37:57;203943.00;0.68;352.71;0.00;0.00;0.62;;;;;24.00;38.00;;;;;;2262424;60;7861;-69
2020/12/29 01:40:24;265620.00;0.89;458.81;0.00;0.00;0.62;;;;;24.00;38.00;;;;;;2259236;61;7849;-69
2020/12/29 01:42:58;282390.00;0.94;487.65;0.00;0.00;0.62;;;;;24.00;37.90;;;;;;2263950;61;5884;-69
2020/12/29 01:45:28;248104.00;0.83;428.69;0.00;0.00;0.62;;;;;24.00;37.90;;;;;;2263674;61;7698;-69
2020/12/29 01:47:55;214391.00;0.71;370.69;0.00;0.00;0.62;;;;;24.00;37.80;;;;;;2261408;61;7561;-69
2020/12/29 01:50:24;241948.00;0.81;418.10;5827.00;0.02;10.72;;;;;24.00;37.80;;;;;;2257358;61;7744;-69
2020/12/29 01:52:59;267332.00;0.89;461.76;0.00;0.00;0.62;;;;;24.10;37.90;;;;;;2262513;61;7757;-69
2020/12/29 01:55:27;107692.00;0.36;186.85;0.00;0.00;0.62;;;;;24.00;37.80;;;;;;2262986;60;7348;-69
2020/12/29 01:57:55;353523.00;1.18;609.92;29452.00;0.10;51.63;;;;;24.00;37.80;;;;;;2262659;60;8175;-69
2020/12/29 02:00:23;302357.00;1.01;521.97;0.00;0.00;0.62;;;;;24.10;37.90;;;;;;2260316;61;7606;-69
2020/12/29 02:02:53;219481.00;0.73;379.45;0.00;0.00;0.62;;;;;24.10;37.80;;;;;;2262027;61;7728;-69
2020/12/29 02:05:20;1952305.00;6.51;3526.85;70883.00;0.24;123.29;;;;;24.00;37.80;;;;;;2267609;56;3894;-68
2020/12/29 02:07:48;260038.00;0.87;449.21;0.00;0.00;0.62;;;;;24.10;37.80;;;;;;2257746;61;2058;-68
2020/12/29 02:10:15;275968.00;0.92;476.61;22542.00;0.08;39.67;;;;;24.00;37.70;;;;;;2258038;61;1819;-68
2020/12/29 02:12:42;157690.00;0.53;273.06;0.00;0.00;0.62;;;;;24.00;37.80;;;;;;2251627;61;1967;-68
2020/12/29 02:15:09;195058.00;0.65;337.42;0.00;0.00;0.62;;;;;24.10;37.80;;;;;;2258309;61;1697;-69
2020/12/29 02:17:36;160138.00;0.53;277.28;0.00;0.00;0.62;;;;;24.10;37.70;;;;;;2254632;61;1548;-69
2020/12/29 02:20:07;702712.00;2.34;1211.94;21030.00;0.07;37.05;;;;;24.10;37.70;;;;;;2258948;61;1072;-69
2020/12/29 02:22:33;117814904.00;392.72;66241980.00;14163.00;0.05;25.16;;;;;24.10;37.70;;;;;;2251701;61;1635;-69
2020/12/29 02:25:02;331384.00;1.10;571.86;0.00;0.00;0.62;;;;;24.10;37.70;;;;;;2258346;61;1487;-69
2020/12/29 02:27:32;392459.00;1.31;676.84;0.00;0.00;0.62;;;;;24.10;37.70;;;;;;2258071;61;1958;-69
2020/12/29 02:29:59;413595.00;1.38;713.18;0.00;0.00;0.62;;;;;24.10;37.70;;;;;;2258263;61;1582;-69
2020/12/29 02:32:26;226562.00;0.76;391.63;7905.00;0.03;14.32;;;;;24.10;37.70;;;;;;2258257;61;1795;-69
2020/12/29 02:34:53;316323.00;1.05;545.98;6257.00;0.02;11.46;;;;;24.00;37.60;;;;;;2254990;61;1989;-68
2020/12/29 02:37:23;295505.00;0.99;510.19;2882.00;0.01;5.62;;;;;24.10;37.70;;;;;;2259026;61;828;-69
2020/12/29 02:39:52;228714.00;0.76;395.34;0.00;0.00;0.62;;;;;24.10;37.60;;;;;;2251424;61;1595;-69
2020/12/29 02:42:19;355151.00;1.18;612.71;11067.00;0.04;19.80;;;;;24.10;37.60;;;;;;2258348;61;1367;-69
2020/12/29 02:44:53;265783.00;0.89;459.09;21802.00;0.07;38.39;;;;;24.10;37.60;;;;;;2260160;61;1435;-69
2020/12/29 02:47:23;94301.00;0.31;163.73;0.00;0.00;0.62;;;;;24.10;37.70;;;;;;2259218;61;2033;-68
2020/12/29 02:49:49;269484.00;0.90;465.46;0.00;0.00;0.62;;;;;24.00;37.50;;;;;;2257755;61;1561;-68
2020/12/29 02:52:17;361338.00;1.20;623.35;2824.00;0.01;5.51;;;;;24.10;37.60;;;;;;2248038;61;9052;-68
2020/12/29 02:54:44;559936.00;1.87;965.09;26927.00;0.09;47.26;;;;;24.10;37.60;;;;;;2247843;61;5959;-68
2020/12/29 02:57:10;189743.00;0.63;328.27;0.00;0.00;0.62;;;;;24.00;37.50;;;;;;2249531;61;7721;-68
2020/12/29 02:59:36;479942.00;1.60;827.30;0.00;0.00;0.62;;;;;24.10;37.70;;;;;;2249017;61;7971;-68
2020/12/29 03:02:03;328573.00;1.10;567.03;12804.00;0.04;22.81;;;;;24.00;37.60;;;;;;2246850;61;7601;-68
2020/12/29 03:04:29;638248.00;2.13;1100.31;39341.00;0.13;68.75;;;;;24.00;37.50;;;;;;2246944;61;7772;-68
2020/12/29 03:06:55;501854.00;1.67;865.02;0.00;0.00;0.62;;;;;24.00;37.50;;;;;;2242144;61;8238;-68
2020/12/29 03:09:21;620056.00;2.07;1068.86;47270.00;0.16;82.46;;;;;24.00;37.50;;;;;;2248389;61;8303;-68
2020/12/29 03:11:48;416711.00;1.39;718.54;7473.00;0.02;13.57;;;;;24.00;37.50;;;;;;2248909;61;8172;-68
2020/12/29 03:14:14;437612.00;1.46;754.48;15942.00;0.05;28.24;;;;;24.00;37.50;;;;;;2250916;61;6277;-68
2020/12/29 03:16:41;426447.00;1.42;735.28;665.00;0.00;1.77;;;;;24.10;37.60;;;;;;2250316;61;7945;-68
2020/12/29 03:19:20;368781.00;1.23;636.14;0.00;0.00;0.62;;;;;24.00;37.50;;;;;;2246402;61;6162;-68
2020/12/29 03:21:46;332921.00;1.11;574.51;0.00;0.00;0.62;;;;;24.00;37.50;;;;;;2249216;61;8157;-68
2020/12/29 03:24:12;314213.00;1.05;542.35;0.00;0.00;0.62;;;;;24.00;37.40;;;;;;2249007;61;6596;-68
2020/12/29 03:26:42;217636.00;0.73;376.28;0.00;0.00;0.62;;;;;24.00;37.40;;;;;;2249394;61;6191;-67
2020/12/29 03:29:09;309840.00;1.03;534.83;11545.00;0.04;20.63;;;;;24.00;37.40;;;;;;2247873;61;7743;-68
2020/12/29 03:31:38;181700.00;0.61;314.42;0.00;0.00;0.62;;;;;24.10;37.40;;;;;;2249432;61;8259;-68
2020/12/29 03:34:05;245992.00;0.82;425.06;5294.00;0.02;9.80;;;;;24.00;37.30;;;;;;2252446;61;7878;-68
2020/12/29 03:36:33;306544.00;1.02;529.17;11896.00;0.04;21.23;;;;;24.00;37.30;;;;;;2247321;61;8366;-68
2020/12/29 03:38:59;612792.00;2.04;1056.31;20443.00;0.07;36.04;;;;;24.00;37.40;;;;;;2249165;61;7861;-68
2020/12/29 03:41:26;375777.00;1.25;648.17;12883.00;0.04;22.94;;;;;24.00;38.10;;;;;;2247965;61;8143;-68
2020/12/29 03:43:52;244754.00;0.82;422.93;10510.00;0.04;18.83;;;;;24.00;37.40;;;;;;2252053;61;8167;-68
2020/12/29 03:46:19;143594.00;0.48;248.77;0.00;0.00;0.62;;;;;24.00;37.40;;;;;;2252143;61;7554;-68
2020/12/29 03:48:45;159705.00;0.53;276.53;0.00;0.00;0.62;;;;;24.00;37.30;;;;;;2248091;61;7622;-68
2020/12/29 03:51:12;398007.00;1.33;686.38;148.00;0.00;0.88;;;;;24.00;37.30;;;;;;2245440;61;6296;-68
2020/12/29 03:53:38;472360.00;1.57;814.25;7769.00;0.03;14.08;;;;;24.00;37.30;;;;;;2248818;61;6133;-68
2020/12/29 03:56:05;426723.00;1.42;735.75;3113.00;0.01;6.02;;;;;24.00;37.20;;;;;;2245600;61;7665;-68
2020/12/29 03:58:31;319836.00;1.07;552.02;24458.00;0.08;42.99;;;;;24.00;37.20;;;;;;2248312;61;7640;-68
2020/12/29 04:00:58;304037.00;1.01;524.86;12889.00;0.04;22.95;;;;;24.00;37.30;;;;;;2254177;61;5963;-68
2020/12/29 04:03:24;397606.00;1.33;685.69;0.00;0.00;0.62;;;;;24.00;37.20;;;;;;2248484;61;6216;-69
2020/12/29 04:05:51;209373.00;0.70;362.06;0.00;0.00;0.62;;;;;24.00;37.30;;;;;;2245990;61;8174;-68
2020/12/29 04:08:17;332645.00;1.11;574.03;14293.00;0.05;25.39;;;;;24.00;37.30;;;;;;2244940;61;5889;-68
2020/12/29 04:10:43;196170.00;0.65;339.33;0.00;0.00;0.62;;;;;24.00;37.20;;;;;;2249708;61;5681;-68
2020/12/29 04:13:10;152501.00;0.51;264.12;0.00;0.00;0.62;;;;;24.00;37.20;;;;;;2252271;61;7833;-68
2020/12/29 04:15:36;303586.00;1.01;524.08;0.00;0.00;0.62;;;;;24.00;37.20;;;;;;2250286;61;6081;-68
2020/12/29 04:18:02;208885.00;0.70;361.22;0.00;0.00;0.62;;;;;24.00;37.20;;;;;;2249473;61;8009;-68
2020/12/29 04:20:29;205988.00;0.69;356.23;0.00;0.00;0.62;;;;;24.00;37.20;;;;;;2243797;61;7582;-68
2020/12/29 04:22:55;323200.00;1.08;557.80;0.00;0.00;0.62;;;;;24.00;37.30;;;;;;2251621;61;8630;-68
2020/12/29 04:25:21;334229.00;1.11;576.75;39191.00;0.13;68.49;;;;;24.00;37.20;;;;;;2250502;61;8392;-68
2020/12/29 04:27:48;328132.00;1.09;566.28;0.00;0.00;0.62;;;;;24.00;37.20;;;;;;2249448;61;8100;-68
2020/12/29 04:30:14;212091.00;0.71;366.73;0.00;0.00;0.62;;;;;24.00;37.20;;;;;;2252752;61;8295;-68
2020/12/29 04:32:41;311927.00;1.04;538.42;0.00;0.00;0.62;;;;;24.00;37.20;;;;;;2251728;61;8104;-68
2020/12/29 04:35:08;206638.00;0.69;357.35;0.00;0.00;0.62;;;;;24.00;37.20;;;;;;2245839;61;8249;-68
2020/12/29 04:37:35;814058.00;2.71;1405.65;5788.00;0.02;10.65;;;;;24.00;37.20;;;;;;2252914;61;8354;-68
2020/12/29 04:40:06;201333.00;0.67;348.22;0.00;0.00;0.62;;;;;24.00;37.30;;;;;;2253025;61;7979;-68
2020/12/29 04:42:33;313687.00;1.05;541.45;0.00;0.00;0.62;;;;;24.00;37.20;;;;;;2251742;61;7512;-68
2020/12/29 04:45:05;283376.00;0.94;489.34;0.00;0.00;0.62;;;;;24.00;37.20;;;;;;2255436;61;7216;-68
2020/12/29 04:47:31;282958.00;0.94;488.62;4445.00;0.01;8.32;;;;;24.00;37.20;;;;;;2248745;61;7755;-68
2020/12/29 04:49:59;292191.00;0.97;504.50;0.00;0.00;0.62;;;;;24.00;37.20;;;;;;2252943;61;4203;-68
2020/12/29 04:52:26;261560.00;0.87;451.83;339.00;0.00;1.21;;;;;24.00;37.20;;;;;;2252777;61;6382;-68
2020/12/29 04:54:54;392085.00;1.31;676.20;37385.00;0.12;65.36;;;;;24.00;37.20;;;;;;2252669;61;7140;-68
2020/12/29 04:57:23;226951.00;0.76;392.30;6594.00;0.02;12.05;;;;;24.10;37.20;;;;;;2252896;61;7193;-68
2020/12/29 04:59:52;435780.00;1.45;751.33;23722.00;0.08;41.71;;;;;24.10;37.10;;;;;;2249851;61;7549;-68
2020/12/29 05:02:19;343928.00;1.15;593.42;0.00;0.00;0.62;;;;;24.10;37.00;;;;;;2254232;61;7328;-68
2020/12/29 05:04:45;275771.00;0.92;476.27;0.00;0.00;0.62;;;;;24.20;37.00;;;;;;2248892;61;7497;-68
2020/12/29 05:07:12;206691.00;0.69;357.44;0.00;0.00;0.62;;;;;24.20;37.00;;;;;;2249775;61;7482;-68
2020/12/29 05:09:39;201524.00;0.67;348.55;0.00;0.00;0.62;;;;;24.20;37.00;;;;;;2252822;61;7477;-68
2020/12/29 05:12:09;418601.00;1.40;721.78;0.00;0.00;0.62;;;;;24.20;37.00;;;;;;2252814;61;7477;-68
2020/12/29 05:14:37;371762.00;1.24;641.27;0.00;0.00;0.62;;;;;24.20;37.00;;;;;;2251778;61;5427;-68
2020/12/29 05:17:03;335911.00;1.12;579.65;14270.00;0.05;25.35;;;;;24.30;36.90;;;;;;2249286;61;7558;-68
2020/12/29 05:19:33;344971.00;1.15;595.22;5615.00;0.02;10.35;;;;;24.30;36.80;;;;;;2251727;61;7410;-68
2020/12/29 05:22:00;260176.00;0.87;449.45;387.00;0.00;1.29;;;;;24.30;36.70;;;;;;2249518;61;7207;-68
2020/12/29 05:24:26;461282.00;1.54;795.19;15643.00;0.05;27.72;;;;;24.30;36.60;;;;;;2250736;61;6348;-68
2020/12/29 05:27:01;486122.00;1.62;837.93;0.00;0.00;0.62;;;;;24.30;36.60;;;;;;2253807;61;7787;-68
2020/12/29 05:29:30;494933.00;1.65;853.10;16556.00;0.06;29.31;;;;;24.30;36.60;;;;;;2252566;61;7409;-68
2020/12/29 05:31:56;182986.00;0.61;316.63;0.00;0.00;0.62;;;;;24.30;36.60;;;;;;2253782;61;6095;-68
2020/12/29 05:34:28;146967.00;0.49;254.58;0.00;0.00;0.62;;;;;24.30;36.60;;;;;;2254847;61;7495;-68
2020/12/29 05:36:56;32189.00;0.11;56.37;0.00;0.00;0.62;;;;;24.30;36.50;;;;;;2252611;61;7435;-68
2020/12/29 05:39:28;291678.00;0.97;503.61;0.00;0.00;0.62;;;;;24.30;36.50;;;;;;2255187;61;6090;-68
2020/12/29 05:41:56;105726.00;0.35;183.45;0.00;0.00;0.62;;;;;24.30;36.50;;;;;;2249836;61;7599;-68
2020/12/29 05:44:28;110477.00;0.37;191.65;0.00;0.00;0.62;;;;;24.30;36.40;;;;;;2252177;61;7592;-66
2020/12/29 05:47:03;410754.00;1.37;708.29;0.00;0.00;0.62;;;;;24.30;36.30;;;;;;2253562;61;8034;-68
2020/12/29 05:49:33;545593.00;1.82;940.36;0.00;0.00;0.62;;;;;24.30;36.20;;;;;;2252701;61;5817;-68
2020/12/29 05:52:00;463616.00;1.55;799.21;7560.00;0.03;13.72;;;;;24.30;36.20;;;;;;2246487;61;7468;-68
2020/12/29 05:54:27;218185.00;0.73;377.22;9749.00;0.03;17.51;;;;;24.30;36.30;;;;;;2252535;61;7123;-68
2020/12/29 05:56:54;413259.00;1.38;712.60;17016.00;0.06;30.10;;;;;24.30;36.30;;;;;;2250043;61;7438;-68
2020/12/29 05:59:21;441491.00;1.47;761.15;4580.00;0.02;8.56;;;;;24.30;36.30;;;;;;2252231;61;7166;-68
2020/12/29 06:01:52;190894.00;0.64;330.25;385.00;0.00;1.29;;;;;24.30;36.30;;;;;;2251068;61;7522;-68
2020/12/29 06:04:21;355109.00;1.18;612.64;0.00;0.00;0.62;;;;;24.30;36.30;;;;;;2254756;61;7438;-68
2020/12/29 06:06:49;101618.00;0.34;176.36;0.00;0.00;0.62;;;;;24.30;36.40;;;;;;2254073;61;7406;-69
2020/12/29 06:09:18;388312.00;1.29;669.71;0.00;0.00;0.62;;;;;24.30;36.40;;;;;;2254295;61;7304;-69
2020/12/29 06:11:47;512388.00;1.71;883.15;0.00;0.00;0.62;;;;;24.20;36.50;;;;;;2253451;61;7747;-68
2020/12/29 06:14:16;461034.00;1.54;794.76;0.00;0.00;0.62;;;;;24.20;36.60;;;;;;2253800;61;7600;-68
2020/12/29 06:16:44;389878.00;1.30;672.40;10737.00;0.04;19.23;;;;;24.20;36.60;;;;;;2253725;61;7566;-68
2020/12/29 06:19:28;288213.00;0.96;497.66;0.00;0.00;0.62;;;;;24.20;36.70;;;;;;2254430;61;10119;-68
2020/12/29 06:22:05;180632.00;0.60;312.58;0.00;0.00;0.62;;;;;24.20;36.80;;;;;;2254675;61;7572;-68
2020/12/29 06:24:48;362361.00;1.21;625.11;0.00;0.00;0.62;;;;;24.20;36.80;;;;;;2254553;61;8172;-68
2020/12/29 06:27:14;349438.00;1.16;602.90;0.00;0.00;0.62;;;;;24.20;36.80;;;;;;2250305;61;7778;-68
2020/12/29 06:29:44;234469.00;0.78;405.24;0.00;0.00;0.62;;;;;24.20;36.70;;;;;;2254935;61;7697;-68
2020/12/29 06:32:21;253552.00;0.85;438.06;0.00;0.00;0.62;;;;;24.20;36.80;;;;;;2254388;61;7962;-68
2020/12/29 06:34:48;447923.00;1.49;772.21;0.00;0.00;0.62;;;;;24.10;36.80;;;;;;2250569;61;7580;-68
2020/12/29 06:37:25;278106.00;0.93;480.28;0.00;0.00;0.62;;;;;24.10;36.70;;;;;;2250994;61;7443;-68
2020/12/29 06:40:02;293477.00;0.98;506.71;0.00;0.00;0.62;;;;;24.10;36.70;;;;;;2250595;61;7517;-67
2020/12/29 06:42:38;301286.00;1.00;520.13;0.00;0.00;0.62;;;;;24.20;36.70;;;;;;2255687;61;7426;-68
2020/12/29 06:45:07;233294.00;0.78;403.22;0.00;0.00;0.62;;;;;24.10;36.60;;;;;;2250402;61;7320;-67
2020/12/29 06:47:38;371535.00;1.24;640.88;0.00;0.00;0.62;;;;;24.10;36.50;;;;;;2251076;61;3928;-68
2020/12/29 06:50:23;159566.00;0.53;276.29;222.00;0.00;1.00;;;;;24.20;36.50;;;;;;2254067;61;7582;-67
2020/12/29 06:53:04;206751.00;0.69;357.54;0.00;0.00;0.62;;;;;24.10;36.50;;;;;;2254057;61;6082;-67
2020/12/29 06:55:39;259246.00;0.86;447.85;27198.00;0.09;47.73;;;;;24.20;36.60;;;;;;2251693;61;7555;-67
2020/12/29 06:58:07;577759.00;1.93;995.83;1927.00;0.01;3.96;;;;;24.10;36.60;;;;;;2251638;61;7161;-67
2020/12/29 07:00:37;467135.00;1.56;805.26;0.00;0.00;0.62;;;;;24.10;36.60;;;;;;2253697;61;7571;-68
2020/12/29 07:03:07;276557.00;0.92;477.62;0.00;0.00;0.62;;;;;24.10;36.60;;;;;;2253026;61;7311;-67
2020/12/29 07:05:37;506842.00;1.69;873.60;0.00;0.00;0.62;;;;;24.10;36.70;;;;;;2253614;61;7400;-67
2020/12/29 07:08:05;432151.00;1.44;745.08;7040.00;0.02;12.82;;;;;24.10;36.80;;;;;;2248348;61;7415;-67
2020/12/29 07:10:42;131243.00;0.44;227.47;0.00;0.00;0.62;;;;;24.10;36.90;;;;;;2253398;61;7636;-67
2020/12/29 07:13:20;241753.00;0.81;417.77;0.00;0.00;0.62;;;;;24.00;36.90;;;;;;2253169;61;7629;-67
2020/12/29 07:15:55;456256.00;1.52;786.54;9875.00;0.03;17.73;;;;;24.10;37.00;;;;;;2247580;61;6010;-67
2020/12/29 07:18:26;243548.00;0.81;420.85;0.00;0.00;0.62;;;;;24.10;37.10;;;;;;2248726;61;5799;-67
2020/12/29 07:20:55;349069.00;1.16;602.26;0.00;0.00;0.62;;;;;24.10;37.10;;;;;;2249443;61;7816;-67
2020/12/29 07:23:29;497503.00;1.66;857.52;28240.00;0.09;49.54;;;;;24.10;37.20;;;;;;2250022;61;7720;-67
2020/12/29 07:25:59;351872.00;1.17;607.08;28299.00;0.09;49.64;;;;;24.10;37.30;;;;;;2253977;61;7599;-67
2020/12/29 07:28:30;287988.00;0.96;497.27;0.00;0.00;0.62;;;;;24.10;37.20;;;;;;2252794;61;7424;-67
2020/12/29 07:30:57;194777.00;0.65;336.93;0.00;0.00;0.62;;;;;24.10;37.20;;;;;;2253134;61;5955;-67
2020/12/29 07:33:26;308718.00;1.03;532.91;0.00;0.00;0.62;;;;;24.10;37.20;;;;;;2247509;61;7671;-67
2020/12/29 07:35:57;357120.00;1.19;616.10;0.00;0.00;0.62;;;;;24.10;37.10;;;;;;2252437;61;7945;-68
2020/12/29 07:38:27;148616.00;0.50;257.42;0.00;0.00;0.62;;;;;24.10;37.10;;;;;;2247104;61;6208;-67
2020/12/29 07:40:54;282821.00;0.94;488.39;0.00;0.00;0.62;;;;;24.20;37.10;;;;;;2249822;61;6400;-67
2020/12/29 07:43:24;412133.00;1.37;710.66;0.00;0.00;0.62;;;;;24.20;37.00;;;;;;2253343;61;7854;-68
2020/12/29 07:45:50;293230.00;0.98;506.28;0.00;0.00;0.62;;;;;24.20;37.10;;;;;;2245926;61;7187;-68
2020/12/29 07:48:17;330894.00;1.10;571.02;0.00;0.00;0.62;;;;;24.20;37.00;;;;;;2249663;61;7265;-67
2020/12/29 07:50:44;579427.00;1.93;998.71;0.00;0.00;0.62;;;;;24.20;37.00;;;;;;2252783;61;7950;-68
2020/12/29 07:53:17;621591.00;2.07;1071.52;0.00;0.00;0.62;;;;;24.20;37.00;;;;;;2249522;61;7846;-68
2020/12/29 07:55:46;336987.00;1.12;581.50;11157.00;0.04;19.95;;;;;24.20;36.90;;;;;;2253981;61;7523;-68
2020/12/29 07:58:16;462362.00;1.54;797.05;0.00;0.00;0.62;;;;;24.20;36.90;;;;;;2252440;61;7679;-68
2020/12/29 08:00:47;331881.00;1.11;572.72;12358.00;0.04;22.03;;;;;24.20;36.80;;;;;;2249677;61;7948;-68
2020/12/29 08:03:13;370038.00;1.23;638.30;15915.00;0.05;28.20;;;;;24.20;36.70;;;;;;2248447;61;7504;-68
2020/12/29 08:05:40;479392.00;1.60;826.35;8423.00;0.03;15.22;;;;;24.20;36.70;;;;;;2249584;61;7549;-67
2020/12/29 08:08:08;398818.00;1.33;687.77;27798.00;0.09;48.77;;;;;24.20;36.70;;;;;;2254922;61;7662;-68
2020/12/29 08:10:37;848862.00;2.83;1466.48;5548.00;0.02;10.24;;;;;24.20;37.40;;;;;;2250370;61;7417;-67
2020/12/29 08:13:05;983378.00;3.28;1703.05;76307.00;0.25;132.66;;;;;24.20;36.80;;;;;;2256990;61;7422;-68
2020/12/29 08:15:42;1547043.00;5.16;2731.96;43659.00;0.15;76.22;;;;;24.20;36.80;;;;;;2249397;61;8290;-68
2020/12/29 08:18:13;1153124.00;3.84;2005.69;28499.00;0.09;49.98;;;;;24.20;36.70;;;;;;2257301;61;7452;-68
2020/12/29 08:20:51;1227820.00;4.09;2140.60;3847.00;0.01;7.29;;;;;24.20;36.70;;;;;;2253203;61;7486;-67
2020/12/29 08:23:20;1068713.00;3.56;1854.56;41428.00;0.14;72.36;;;;;24.30;36.80;;;;;;2253600;61;7675;-68
2020/12/29 08:25:53;1436173.00;4.79;2523.58;7288.00;0.02;13.25;;;;;24.30;36.70;;;;;;2249858;61;7657;-68
2020/12/29 08:28:23;1579178.00;5.26;2793.01;10289.00;0.03;18.45;;;;;24.30;36.70;;;;;;2252930;61;7353;-67
2020/12/29 08:30:49;1822126.00;6.07;3265.26;33090.00;0.11;57.93;;;;;24.30;36.70;;;;;;2253215;61;7395;-68
2020/12/29 08:33:23;1577716.00;5.26;2790.23;41431.00;0.14;72.36;;;;;24.40;36.70;;;;;;2253163;61;7463;-68
2020/12/29 08:35:54;1532286.00;5.11;2704.02;37404.00;0.12;65.40;;;;;24.40;36.80;;;;;;2254328;61;7902;-67
2020/12/29 08:38:29;1960157.00;6.53;3542.83;66462.00;0.22;115.65;;;;;24.50;36.90;;;;;;2255006;61;8024;-67
2020/12/29 08:41:08;1171922.00;3.91;2039.54;14234.00;0.05;25.28;;;;;24.50;36.80;;;;;;2255590;61;8171;-68
2020/12/29 08:43:49;1119830.00;3.73;1945.92;36731.00;0.12;64.23;;;;;24.60;36.90;;;;;;2254957;61;8900;-67
2020/12/29 08:46:22;132234760.00;440.78;93694152.00;5763.00;0.02;10.61;;;;;24.70;36.90;;;;;;2255273;61;8193;-67
2020/12/29 08:48:59;1229850.00;4.10;2144.28;19986.00;0.07;35.25;;;;;24.80;36.80;;;;;;2254968;61;8011;-67
2020/12/29 08:51:27;1692328.00;5.64;3010.53;31943.00;0.11;55.95;;;;;24.80;36.60;;;;;;2256165;61;8183;-68
2020/12/29 08:54:05;2492377.00;8.31;4689.23;28639.00;0.10;50.23;;;;;24.90;36.40;;;;;;2256222;61;8314;-67
2020/12/29 08:56:31;1602256.00;5.34;2837.05;6350.00;0.02;11.62;;;;;24.90;36.20;;;;;;2260038;61;7995;-68
2020/12/29 08:59:08;676359.00;2.25;1166.27;8805.00;0.03;15.88;;;;;24.90;36.00;;;;;;2249266;61;7611;-67
2020/12/29 09:01:45;759041.00;2.53;1309.78;0.00;0.00;0.62;;;;;24.90;35.90;;;;;;2256266;61;8018;-67
2020/12/29 09:04:49;794782.00;2.65;1372.03;24156.00;0.08;42.47;;;;;25.00;36.30;;;;;;2252251;61;8154;-67
2020/12/29 09:07:16;767417.00;2.56;1324.36;14909.00;0.05;26.45;;;;;25.00;37.40;;;;;;2255463;61;7943;-67
2020/12/29 09:09:51;1215826.00;4.05;2118.86;16424.00;0.05;29.08;;;;;25.00;38.60;;;;;;2257429;61;7720;-67
2020/12/29 09:12:28;1963016.00;6.54;3548.66;34914.00;0.12;61.09;;;;;25.10;39.40;;;;;;2255816;61;8058;-68
2020/12/29 09:15:04;1493853.00;4.98;2631.56;28977.00;0.10;50.81;;;;;25.10;39.70;;;;;;2256476;61;7960;-68
2020/12/29 09:17:32;1169319.00;3.90;2034.85;30780.00;0.10;53.93;;;;;25.20;39.80;;;;;;2256027;61;7992;-66
2020/12/29 09:20:14;997786.00;3.33;1728.55;51078.00;0.17;89.05;;;;;25.20;39.60;;;;;;2251759;61;8113;-66
2020/12/29 09:22:49;1299092.00;4.33;2270.44;38497.00;0.13;67.29;;;;;25.30;39.30;;;;;;2257051;61;8079;-67
2020/12/29 09:25:38;728041.00;2.43;1255.90;21833.00;0.07;38.44;;;;;25.40;39.10;;;;;;2255804;61;8125;-67
2020/12/29 09:28:29;378422.00;1.26;652.71;0.00;0.00;0.62;;;;;25.40;39.10;;;;;;2252992;61;4729;-67
2020/12/29 09:31:01;387928.00;1.29;669.05;41611.00;0.14;72.68;;;;;25.50;39.10;;;;;;2256021;61;7550;-66
2020/12/29 09:33:29;506030.00;1.69;872.21;33558.00;0.11;58.74;;;;;25.50;38.80;;;;;;2248367;61;5595;-66
2020/12/29 09:36:02;652162.00;2.17;1124.38;8731.00;0.03;15.75;;;;;25.50;38.70;;;;;;2247620;61;8267;-67
2020/12/29 09:38:30;594572.00;1.98;1024.85;33248.00;0.11;58.20;;;;;25.60;38.60;;;;;;2255542;61;8075;-68
2020/12/29 09:40:59;306429.00;1.02;528.97;0.00;0.00;0.62;;;;;25.60;38.50;;;;;;2254562;61;8103;-67
2020/12/29 09:43:26;372739.00;1.24;642.94;11673.00;0.04;20.85;;;;;25.70;38.40;;;;;;2254904;61;7984;-68
2020/12/29 09:45:53;329832.00;1.10;569.20;51309.00;0.17;89.45;;;;;25.60;38.10;;;;;;2256029;61;8247;-68
2020/12/29 09:48:20;357944.00;1.19;617.52;0.00;0.00;0.62;;;;;25.60;37.90;;;;;;2253975;61;5750;-67